sensor_id;sensor_type;location;lat;lon;timestamp;P1;durP1;ratioP1;P2;durP2;ratioP2
4857;SDS011;58975;51.978;8.472;2024-03-02T00:01:03;10.73;;;5.95;;
4857;SDS011;58975;51.978;8.472;2024-03-02T00:06:00;7.47;;;5.32;;
4857;SDS011;58975;51.978;8.472;2024-03-02T00:10:57;15.23;;;6.78;;
4857;SDS011;58975;51.978;8.472;2024-03-02T00:15:55;12.52;;;7.00;;
4857;SDS011;58975;51.978;8.472;2024-03-02T00:20:56;9.88;;;5.72;;
4857;SDS011;58975;51.978;8.472;2024-03-02T00:25:54;11.80;;;7.32;;
4857;SDS011;58975;51.978;8.472;2024-03-02T00:30:54;10.35;;;6.60;;
4857;SDS011;58975;51.978;8.472;2024-03-02T00:35:51;13.40;;;7.30;;
4857;SDS011;58975;51.978;8.472;2024-03-02T00:40:48;10.95;;;6.95;;
4857;SDS011;58975;51.978;8.472;2024-03-02T00:45:45;14.15;;;7.43;;
4857;SDS011;58975;51.978;8.472;2024-03-02T00:50:41;11.50;;;6.85;;
4857;SDS011;58975;51.978;8.472;2024-03-02T00:55:38;11.65;;;6.75;;
4857;SDS011;58975;51.978;8.472;2024-03-02T01:00:40;11.95;;;6.85;;
4857;SDS011;58975;51.978;8.472;2024-03-02T01:05:40;11.40;;;7.13;;
4857;SDS011;58975;51.978;8.472;2024-03-02T01:10:38;10.73;;;7.00;;
4857;SDS011;58975;51.978;8.472;2024-03-02T01:15:34;12.02;;;7.20;;
4857;SDS011;58975;51.978;8.472;2024-03-02T01:20:31;10.65;;;6.75;;
4857;SDS011;58975;51.978;8.472;2024-03-02T01:25:27;13.60;;;7.63;;
4857;SDS011;58975;51.978;8.472;2024-03-02T01:30:24;13.93;;;7.15;;
4857;SDS011;58975;51.978;8.472;2024-03-02T01:35:20;11.82;;;6.90;;
4857;SDS011;58975;51.978;8.472;2024-03-02T01:40:17;11.68;;;6.65;;
4857;SDS011;58975;51.978;8.472;2024-03-02T01:45:13;11.15;;;6.53;;
4857;SDS011;58975;51.978;8.472;2024-03-02T01:50:11;10.75;;;6.45;;
4857;SDS011;58975;51.978;8.472;2024-03-02T01:55:08;9.45;;;6.47;;
4857;SDS011;58975;51.978;8.472;2024-03-02T02:00:04;11.20;;;6.65;;
4857;SDS011;58975;51.978;8.472;2024-03-02T02:05:01;10.55;;;6.30;;
4857;SDS011;58975;51.978;8.472;2024-03-02T02:09:58;12.07;;;7.03;;
4857;SDS011;58975;51.978;8.472;2024-03-02T02:14:55;10.50;;;6.32;;
4857;SDS011;58975;51.978;8.472;2024-03-02T02:19:51;10.75;;;6.43;;
4857;SDS011;58975;51.978;8.472;2024-03-02T02:24:48;12.98;;;6.82;;
4857;SDS011;58975;51.978;8.472;2024-03-02T02:29:45;12.77;;;7.20;;
4857;SDS011;58975;51.978;8.472;2024-03-02T02:34:41;11.40;;;6.63;;
4857;SDS011;58975;51.978;8.472;2024-03-02T02:39:37;10.30;;;5.93;;
4857;SDS011;58975;51.978;8.472;2024-03-02T02:44:34;9.73;;;6.72;;
4857;SDS011;58975;51.978;8.472;2024-03-02T02:49:31;12.38;;;7.50;;
4857;SDS011;58975;51.978;8.472;2024-03-02T02:54:27;8.90;;;6.35;;
4857;SDS011;58975;51.978;8.472;2024-03-02T02:59:24;10.30;;;6.80;;
4857;SDS011;58975;51.978;8.472;2024-03-02T03:04:20;11.75;;;6.93;;
4857;SDS011;58975;51.978;8.472;2024-03-02T03:09:16;12.50;;;7.28;;
4857;SDS011;58975;51.978;8.472;2024-03-02T03:14:13;11.23;;;6.95;;
4857;SDS011;58975;51.978;8.472;2024-03-02T03:19:09;12.90;;;7.50;;
4857;SDS011;58975;51.978;8.472;2024-03-02T03:24:06;11.05;;;7.20;;
4857;SDS011;58975;51.978;8.472;2024-03-02T03:29:02;10.05;;;6.40;;
4857;SDS011;58975;51.978;8.472;2024-03-02T03:33:59;11.43;;;7.20;;
4857;SDS011;58975;51.978;8.472;2024-03-02T03:38:55;11.77;;;7.93;;
4857;SDS011;58975;51.978;8.472;2024-03-02T03:43:52;15.32;;;8.23;;
4857;SDS011;58975;51.978;8.472;2024-03-02T03:48:48;14.02;;;8.65;;
4857;SDS011;58975;51.978;8.472;2024-03-02T03:53:45;17.13;;;7.70;;
4857;SDS011;58975;51.978;8.472;2024-03-02T03:58:42;14.35;;;8.10;;
4857;SDS011;58975;51.978;8.472;2024-03-02T04:03:38;13.65;;;7.70;;
4857;SDS011;58975;51.978;8.472;2024-03-02T04:08:35;14.50;;;8.40;;
4857;SDS011;58975;51.978;8.472;2024-03-02T04:13:31;12.05;;;8.13;;
4857;SDS011;58975;51.978;8.472;2024-03-02T04:18:28;16.35;;;9.27;;
4857;SDS011;58975;51.978;8.472;2024-03-02T04:23:26;17.30;;;9.57;;
4857;SDS011;58975;51.978;8.472;2024-03-02T04:28:24;16.55;;;9.50;;
4857;SDS011;58975;51.978;8.472;2024-03-02T04:33:20;18.48;;;9.38;;
4857;SDS011;58975;51.978;8.472;2024-03-02T04:38:17;15.38;;;9.27;;
4857;SDS011;58975;51.978;8.472;2024-03-02T04:43:13;16.63;;;9.65;;
4857;SDS011;58975;51.978;8.472;2024-03-02T04:48:12;15.75;;;9.35;;
4857;SDS011;58975;51.978;8.472;2024-03-02T04:53:10;16.57;;;9.77;;
4857;SDS011;58975;51.978;8.472;2024-03-02T04:58:07;16.35;;;9.13;;
4857;SDS011;58975;51.978;8.472;2024-03-02T05:03:03;16.38;;;10.45;;
4857;SDS011;58975;51.978;8.472;2024-03-02T05:08:00;16.20;;;9.82;;
4857;SDS011;58975;51.978;8.472;2024-03-02T05:12:56;17.75;;;10.20;;
4857;SDS011;58975;51.978;8.472;2024-03-02T05:22:53;16.50;;;9.33;;
4857;SDS011;58975;51.978;8.472;2024-03-02T05:27:50;16.60;;;9.38;;
4857;SDS011;58975;51.978;8.472;2024-03-02T05:32:46;14.90;;;9.57;;
4857;SDS011;58975;51.978;8.472;2024-03-02T05:37:43;20.13;;;10.38;;
4857;SDS011;58975;51.978;8.472;2024-03-02T05:42:39;17.88;;;9.80;;
4857;SDS011;58975;51.978;8.472;2024-03-02T05:47:37;16.70;;;9.73;;
4857;SDS011;58975;51.978;8.472;2024-03-02T05:52:34;16.10;;;9.38;;
4857;SDS011;58975;51.978;8.472;2024-03-02T05:57:31;16.90;;;9.73;;
4857;SDS011;58975;51.978;8.472;2024-03-02T06:02:39;20.40;;;9.60;;
4857;SDS011;58975;51.978;8.472;2024-03-02T06:07:39;18.40;;;10.70;;
4857;SDS011;58975;51.978;8.472;2024-03-02T06:12:35;20.73;;;9.90;;
4857;SDS011;58975;51.978;8.472;2024-03-02T06:17:32;15.95;;;9.85;;
4857;SDS011;58975;51.978;8.472;2024-03-02T06:22:28;21.08;;;10.32;;
4857;SDS011;58975;51.978;8.472;2024-03-02T06:27:25;18.40;;;10.25;;
4857;SDS011;58975;51.978;8.472;2024-03-02T06:32:21;19.65;;;9.57;;
4857;SDS011;58975;51.978;8.472;2024-03-02T06:37:19;20.77;;;9.63;;
4857;SDS011;58975;51.978;8.472;2024-03-02T06:42:15;16.67;;;9.55;;
4857;SDS011;58975;51.978;8.472;2024-03-02T06:47:12;17.90;;;10.50;;
4857;SDS011;58975;51.978;8.472;2024-03-02T06:52:08;15.75;;;9.90;;
4857;SDS011;58975;51.978;8.472;2024-03-02T06:57:05;20.10;;;10.52;;
4857;SDS011;58975;51.978;8.472;2024-03-02T07:02:02;15.35;;;9.05;;
4857;SDS011;58975;51.978;8.472;2024-03-02T07:06:58;19.58;;;10.60;;
4857;SDS011;58975;51.978;8.472;2024-03-02T07:11:55;17.88;;;10.23;;
4857;SDS011;58975;51.978;8.472;2024-03-02T07:16:51;17.42;;;9.65;;
4857;SDS011;58975;51.978;8.472;2024-03-02T07:21:48;21.38;;;11.60;;
4857;SDS011;58975;51.978;8.472;2024-03-02T07:26:45;19.93;;;10.67;;
4857;SDS011;58975;51.978;8.472;2024-03-02T07:31:45;20.02;;;11.13;;
4857;SDS011;58975;51.978;8.472;2024-03-02T07:36:41;21.08;;;11.88;;
4857;SDS011;58975;51.978;8.472;2024-03-02T07:41:38;20.55;;;10.95;;
4857;SDS011;58975;51.978;8.472;2024-03-02T07:46:34;21.05;;;10.70;;
4857;SDS011;58975;51.978;8.472;2024-03-02T07:51:30;17.10;;;10.00;;
4857;SDS011;58975;51.978;8.472;2024-03-02T07:56:27;19.60;;;10.40;;
4857;SDS011;58975;51.978;8.472;2024-03-02T08:01:24;19.65;;;10.95;;
4857;SDS011;58975;51.978;8.472;2024-03-02T08:06:21;18.20;;;11.00;;
4857;SDS011;58975;51.978;8.472;2024-03-02T08:11:18;19.98;;;10.32;;
4857;SDS011;58975;51.978;8.472;2024-03-02T08:16:17;18.30;;;10.20;;
4857;SDS011;58975;51.978;8.472;2024-03-02T08:21:16;16.48;;;9.05;;
4857;SDS011;58975;51.978;8.472;2024-03-02T08:26:12;14.70;;;9.00;;
4857;SDS011;58975;51.978;8.472;2024-03-02T08:31:09;15.40;;;8.07;;
4857;SDS011;58975;51.978;8.472;2024-03-02T08:36:06;15.40;;;9.48;;
4857;SDS011;58975;51.978;8.472;2024-03-02T08:41:05;13.00;;;8.05;;
4857;SDS011;58975;51.978;8.472;2024-03-02T08:46:03;12.02;;;7.28;;
4857;SDS011;58975;51.978;8.472;2024-03-02T08:50:59;10.25;;;6.97;;
4857;SDS011;58975;51.978;8.472;2024-03-02T08:55:56;14.77;;;7.57;;
4857;SDS011;58975;51.978;8.472;2024-03-02T09:00:56;10.60;;;6.78;;
4857;SDS011;58975;51.978;8.472;2024-03-02T09:05:52;11.65;;;6.75;;
4857;SDS011;58975;51.978;8.472;2024-03-02T09:10:49;11.82;;;7.32;;
4857;SDS011;58975;51.978;8.472;2024-03-02T09:15:45;12.57;;;6.40;;
4857;SDS011;58975;51.978;8.472;2024-03-02T09:20:42;12.15;;;6.43;;
4857;SDS011;58975;51.978;8.472;2024-03-02T09:25:38;7.85;;;5.43;;
4857;SDS011;58975;51.978;8.472;2024-03-02T09:30:37;7.60;;;5.18;;
4857;SDS011;58975;51.978;8.472;2024-03-02T09:35:33;9.13;;;5.22;;
4857;SDS011;58975;51.978;8.472;2024-03-02T09:40:30;7.70;;;4.65;;
4857;SDS011;58975;51.978;8.472;2024-03-02T09:45:26;10.07;;;5.45;;
4857;SDS011;58975;51.978;8.472;2024-03-02T09:50:23;11.00;;;6.07;;
4857;SDS011;58975;51.978;8.472;2024-03-02T09:55:19;9.88;;;5.32;;
4857;SDS011;58975;51.978;8.472;2024-03-02T10:00:17;12.63;;;5.53;;
4857;SDS011;58975;51.978;8.472;2024-03-02T10:05:14;9.73;;;5.53;;
4857;SDS011;58975;51.978;8.472;2024-03-02T10:10:19;7.72;;;4.72;;
4857;SDS011;58975;51.978;8.472;2024-03-02T10:15:23;7.03;;;4.53;;
4857;SDS011;58975;51.978;8.472;2024-03-02T10:20:24;9.30;;;5.20;;
4857;SDS011;58975;51.978;8.472;2024-03-02T10:25:31;7.57;;;4.90;;
4857;SDS011;58975;51.978;8.472;2024-03-02T10:30:47;8.00;;;4.70;;
4857;SDS011;58975;51.978;8.472;2024-03-02T10:35:45;9.00;;;4.82;;
4857;SDS011;58975;51.978;8.472;2024-03-02T10:40:48;7.18;;;4.57;;
4857;SDS011;58975;51.978;8.472;2024-03-02T10:45:45;5.97;;;4.00;;
4857;SDS011;58975;51.978;8.472;2024-03-02T10:50:45;5.22;;;3.63;;
4857;SDS011;58975;51.978;8.472;2024-03-02T10:55:41;6.25;;;4.07;;
4857;SDS011;58975;51.978;8.472;2024-03-02T11:00:38;6.13;;;3.63;;
4857;SDS011;58975;51.978;8.472;2024-03-02T11:05:36;7.13;;;3.60;;
4857;SDS011;58975;51.978;8.472;2024-03-02T11:10:58;6.50;;;4.07;;
4857;SDS011;58975;51.978;8.472;2024-03-02T11:16:04;8.32;;;4.72;;
4857;SDS011;58975;51.978;8.472;2024-03-02T11:21:06;8.30;;;3.72;;
4857;SDS011;58975;51.978;8.472;2024-03-02T11:26:21;6.88;;;3.75;;
4857;SDS011;58975;51.978;8.472;2024-03-02T11:31:21;8.02;;;4.38;;
4857;SDS011;58975;51.978;8.472;2024-03-02T11:36:17;6.97;;;3.88;;
4857;SDS011;58975;51.978;8.472;2024-03-02T11:41:14;5.63;;;3.95;;
4857;SDS011;58975;51.978;8.472;2024-03-02T11:46:10;6.05;;;3.47;;
4857;SDS011;58975;51.978;8.472;2024-03-02T11:51:08;6.22;;;3.97;;
4857;SDS011;58975;51.978;8.472;2024-03-02T11:56:04;8.00;;;4.20;;
4857;SDS011;58975;51.978;8.472;2024-03-02T12:01:05;9.77;;;4.88;;
4857;SDS011;58975;51.978;8.472;2024-03-02T12:06:02;6.63;;;4.32;;
4857;SDS011;58975;51.978;8.472;2024-03-02T12:10:59;4.90;;;3.38;;
4857;SDS011;58975;51.978;8.472;2024-03-02T12:15:59;8.10;;;3.20;;
4857;SDS011;58975;51.978;8.472;2024-03-02T12:20:56;4.47;;;3.20;;
4857;SDS011;58975;51.978;8.472;2024-03-02T12:25:54;5.18;;;3.50;;
4857;SDS011;58975;51.978;8.472;2024-03-02T12:30:51;4.93;;;3.22;;
4857;SDS011;58975;51.978;8.472;2024-03-02T12:35:48;4.35;;;2.95;;
4857;SDS011;58975;51.978;8.472;2024-03-02T12:40:47;5.17;;;3.10;;
4857;SDS011;58975;51.978;8.472;2024-03-02T12:45:44;3.92;;;2.60;;
4857;SDS011;58975;51.978;8.472;2024-03-02T12:50:41;4.80;;;2.85;;
4857;SDS011;58975;51.978;8.472;2024-03-02T12:55:37;3.78;;;2.67;;
4857;SDS011;58975;51.978;8.472;2024-03-02T13:00:34;5.10;;;3.05;;
4857;SDS011;58975;51.978;8.472;2024-03-02T13:05:32;3.90;;;2.35;;
4857;SDS011;58975;51.978;8.472;2024-03-02T13:10:29;4.28;;;2.60;;
4857;SDS011;58975;51.978;8.472;2024-03-02T13:15:28;5.40;;;2.53;;
4857;SDS011;58975;51.978;8.472;2024-03-02T13:20:29;3.88;;;2.55;;
4857;SDS011;58975;51.978;8.472;2024-03-02T13:25:27;3.42;;;2.28;;
4857;SDS011;58975;51.978;8.472;2024-03-02T13:30:26;3.20;;;2.30;;
4857;SDS011;58975;51.978;8.472;2024-03-02T13:35:24;3.47;;;2.43;;
4857;SDS011;58975;51.978;8.472;2024-03-02T13:40:20;4.45;;;2.38;;
4857;SDS011;58975;51.978;8.472;2024-03-02T13:45:17;2.47;;;2.03;;
4857;SDS011;58975;51.978;8.472;2024-03-02T13:50:14;2.50;;;2.13;;
4857;SDS011;58975;51.978;8.472;2024-03-02T13:55:10;4.13;;;2.15;;
4857;SDS011;58975;51.978;8.472;2024-03-02T14:00:07;3.63;;;2.75;;
4857;SDS011;58975;51.978;8.472;2024-03-02T14:05:07;3.67;;;2.30;;
4857;SDS011;58975;51.978;8.472;2024-03-02T14:10:07;5.70;;;2.53;;
4857;SDS011;58975;51.978;8.472;2024-03-02T14:15:04;2.78;;;2.20;;
4857;SDS011;58975;51.978;8.472;2024-03-02T14:20:02;5.40;;;2.33;;
4857;SDS011;58975;51.978;8.472;2024-03-02T14:25:01;3.20;;;2.15;;
4857;SDS011;58975;51.978;8.472;2024-03-02T14:29:57;2.45;;;2.13;;
4857;SDS011;58975;51.978;8.472;2024-03-02T14:34:54;2.45;;;1.42;;
4857;SDS011;58975;51.978;8.472;2024-03-02T14:39:51;5.15;;;1.95;;
4857;SDS011;58975;51.978;8.472;2024-03-02T14:44:48;3.25;;;2.42;;
4857;SDS011;58975;51.978;8.472;2024-03-02T14:49:44;2.90;;;2.17;;
4857;SDS011;58975;51.978;8.472;2024-03-02T14:54:41;2.25;;;1.58;;
4857;SDS011;58975;51.978;8.472;2024-03-02T14:59:38;2.10;;;1.75;;
4857;SDS011;58975;51.978;8.472;2024-03-02T15:04:35;3.28;;;1.85;;
4857;SDS011;58975;51.978;8.472;2024-03-02T15:09:32;2.90;;;2.05;;
4857;SDS011;58975;51.978;8.472;2024-03-02T15:14:31;2.72;;;1.88;;
4857;SDS011;58975;51.978;8.472;2024-03-02T15:19:27;1.77;;;1.35;;
4857;SDS011;58975;51.978;8.472;2024-03-02T15:24:24;1.23;;;1.10;;
4857;SDS011;58975;51.978;8.472;2024-03-02T15:29:22;1.90;;;1.70;;
4857;SDS011;58975;51.978;8.472;2024-03-02T15:34:20;1.70;;;1.52;;
4857;SDS011;58975;51.978;8.472;2024-03-02T15:39:17;2.05;;;1.13;;
4857;SDS011;58975;51.978;8.472;2024-03-02T15:44:14;3.95;;;1.48;;
4857;SDS011;58975;51.978;8.472;2024-03-02T15:49:11;1.35;;;1.20;;
4857;SDS011;58975;51.978;8.472;2024-03-02T15:54:07;2.33;;;1.20;;
4857;SDS011;58975;51.978;8.472;2024-03-02T15:59:04;2.03;;;1.80;;
4857;SDS011;58975;51.978;8.472;2024-03-02T16:04:01;1.13;;;1.00;;
4857;SDS011;58975;51.978;8.472;2024-03-02T16:08:58;1.55;;;1.30;;
4857;SDS011;58975;51.978;8.472;2024-03-02T16:13:56;4.22;;;1.02;;
4857;SDS011;58975;51.978;8.472;2024-03-02T16:18:52;2.70;;;1.40;;
4857;SDS011;58975;51.978;8.472;2024-03-02T16:23:49;2.33;;;1.23;;
4857;SDS011;58975;51.978;8.472;2024-03-02T16:28:45;1.70;;;1.10;;
4857;SDS011;58975;51.978;8.472;2024-03-02T16:33:42;5.32;;;1.35;;
4857;SDS011;58975;51.978;8.472;2024-03-02T16:38:40;2.05;;;1.30;;
4857;SDS011;58975;51.978;8.472;2024-03-02T16:43:37;2.27;;;1.27;;
4857;SDS011;58975;51.978;8.472;2024-03-02T16:48:34;2.90;;;1.65;;
4857;SDS011;58975;51.978;8.472;2024-03-02T16:53:31;1.75;;;1.33;;
4857;SDS011;58975;51.978;8.472;2024-03-02T16:58:30;2.33;;;1.20;;
4857;SDS011;58975;51.978;8.472;2024-03-02T17:03:26;2.83;;;1.95;;
4857;SDS011;58975;51.978;8.472;2024-03-02T17:08:23;2.95;;;1.67;;
4857;SDS011;58975;51.978;8.472;2024-03-02T17:13:19;4.65;;;2.45;;
4857;SDS011;58975;51.978;8.472;2024-03-02T17:18:16;4.40;;;2.78;;
4857;SDS011;58975;51.978;8.472;2024-03-02T17:23:13;6.30;;;2.58;;
4857;SDS011;58975;51.978;8.472;2024-03-02T17:28:22;4.85;;;2.05;;
4857;SDS011;58975;51.978;8.472;2024-03-02T17:33:25;3.80;;;2.20;;
4857;SDS011;58975;51.978;8.472;2024-03-02T17:38:22;4.35;;;2.15;;
4857;SDS011;58975;51.978;8.472;2024-03-02T17:43:19;4.75;;;2.38;;
4857;SDS011;58975;51.978;8.472;2024-03-02T17:48:15;3.47;;;2.33;;
4857;SDS011;58975;51.978;8.472;2024-03-02T17:53:13;3.70;;;1.98;;
4857;SDS011;58975;51.978;8.472;2024-03-02T17:58:09;4.28;;;2.08;;
4857;SDS011;58975;51.978;8.472;2024-03-02T18:03:06;2.45;;;1.90;;
4857;SDS011;58975;51.978;8.472;2024-03-02T18:08:03;5.00;;;2.17;;
4857;SDS011;58975;51.978;8.472;2024-03-02T18:13:00;2.67;;;2.13;;
4857;SDS011;58975;51.978;8.472;2024-03-02T18:17:56;3.45;;;2.10;;
4857;SDS011;58975;51.978;8.472;2024-03-02T18:22:53;3.40;;;2.30;;
4857;SDS011;58975;51.978;8.472;2024-03-02T18:27:53;6.07;;;2.45;;
4857;SDS011;58975;51.978;8.472;2024-03-02T18:32:49;4.30;;;3.35;;
4857;SDS011;58975;51.978;8.472;2024-03-02T18:37:46;4.15;;;2.45;;
4857;SDS011;58975;51.978;8.472;2024-03-02T18:42:42;5.30;;;2.85;;
4857;SDS011;58975;51.978;8.472;2024-03-02T18:47:39;5.38;;;2.95;;
4857;SDS011;58975;51.978;8.472;2024-03-02T18:52:36;7.90;;;2.65;;
4857;SDS011;58975;51.978;8.472;2024-03-02T18:57:33;5.72;;;3.30;;
4857;SDS011;58975;51.978;8.472;2024-03-02T19:02:30;5.22;;;2.85;;
4857;SDS011;58975;51.978;8.472;2024-03-02T19:07:26;4.32;;;3.10;;
4857;SDS011;58975;51.978;8.472;2024-03-02T19:12:22;4.53;;;3.05;;
4857;SDS011;58975;51.978;8.472;2024-03-02T19:17:19;4.68;;;2.75;;
4857;SDS011;58975;51.978;8.472;2024-03-02T19:22:16;5.25;;;2.72;;
4857;SDS011;58975;51.978;8.472;2024-03-02T19:27:13;4.28;;;3.03;;
4857;SDS011;58975;51.978;8.472;2024-03-02T19:32:09;2.90;;;2.45;;
4857;SDS011;58975;51.978;8.472;2024-03-02T19:37:10;4.10;;;3.00;;
4857;SDS011;58975;51.978;8.472;2024-03-02T19:42:07;3.70;;;2.60;;
4857;SDS011;58975;51.978;8.472;2024-03-02T19:47:04;6.55;;;2.90;;
4857;SDS011;58975;51.978;8.472;2024-03-02T19:52:00;3.33;;;2.50;;
4857;SDS011;58975;51.978;8.472;2024-03-02T19:56:57;3.63;;;2.50;;
4857;SDS011;58975;51.978;8.472;2024-03-02T20:01:53;5.00;;;2.25;;
4857;SDS011;58975;51.978;8.472;2024-03-02T20:06:52;5.72;;;2.83;;
4857;SDS011;58975;51.978;8.472;2024-03-02T20:11:50;3.58;;;2.15;;
4857;SDS011;58975;51.978;8.472;2024-03-02T20:16:47;4.30;;;2.58;;
4857;SDS011;58975;51.978;8.472;2024-03-02T20:21:43;5.38;;;2.65;;
4857;SDS011;58975;51.978;8.472;2024-03-02T20:26:40;5.88;;;2.63;;
4857;SDS011;58975;51.978;8.472;2024-03-02T20:31:37;5.30;;;3.35;;
4857;SDS011;58975;51.978;8.472;2024-03-02T20:36:33;5.90;;;3.78;;
4857;SDS011;58975;51.978;8.472;2024-03-02T20:41:30;7.30;;;3.95;;
4857;SDS011;58975;51.978;8.472;2024-03-02T20:46:26;12.98;;;4.60;;
4857;SDS011;58975;51.978;8.472;2024-03-02T20:51:23;7.57;;;4.95;;
4857;SDS011;58975;51.978;8.472;2024-03-02T20:56:25;9.23;;;4.85;;
4857;SDS011;58975;51.978;8.472;2024-03-02T21:01:22;8.45;;;5.60;;
4857;SDS011;58975;51.978;8.472;2024-03-02T21:06:19;8.50;;;5.30;;
4857;SDS011;58975;51.978;8.472;2024-03-02T21:11:16;9.85;;;5.68;;
4857;SDS011;58975;51.978;8.472;2024-03-02T21:16:15;10.75;;;6.07;;
4857;SDS011;58975;51.978;8.472;2024-03-02T21:21:12;9.65;;;5.45;;
4857;SDS011;58975;51.978;8.472;2024-03-02T21:26:09;12.25;;;6.13;;
4857;SDS011;58975;51.978;8.472;2024-03-02T21:31:06;12.55;;;6.35;;
4857;SDS011;58975;51.978;8.472;2024-03-02T21:36:02;8.88;;;6.05;;
4857;SDS011;58975;51.978;8.472;2024-03-02T21:41:00;15.35;;;6.72;;
4857;SDS011;58975;51.978;8.472;2024-03-02T21:45:57;9.82;;;5.63;;
4857;SDS011;58975;51.978;8.472;2024-03-02T21:50:53;9.00;;;5.95;;
4857;SDS011;58975;51.978;8.472;2024-03-02T21:55:50;8.95;;;5.50;;
4857;SDS011;58975;51.978;8.472;2024-03-02T22:00:46;11.00;;;6.00;;
4857;SDS011;58975;51.978;8.472;2024-03-02T22:05:43;8.90;;;5.35;;
4857;SDS011;58975;51.978;8.472;2024-03-02T22:10:39;9.75;;;5.85;;
4857;SDS011;58975;51.978;8.472;2024-03-02T22:15:36;12.25;;;5.78;;
4857;SDS011;58975;51.978;8.472;2024-03-02T22:20:32;8.10;;;4.95;;
4857;SDS011;58975;51.978;8.472;2024-03-02T22:25:29;10.73;;;5.65;;
4857;SDS011;58975;51.978;8.472;2024-03-02T22:30:25;9.57;;;5.82;;
4857;SDS011;58975;51.978;8.472;2024-03-02T22:35:23;10.70;;;4.90;;
4857;SDS011;58975;51.978;8.472;2024-03-02T22:40:20;10.40;;;5.90;;
4857;SDS011;58975;51.978;8.472;2024-03-02T22:45:19;9.05;;;5.45;;
4857;SDS011;58975;51.978;8.472;2024-03-02T22:50:15;11.55;;;5.72;;
4857;SDS011;58975;51.978;8.472;2024-03-02T22:55:12;9.05;;;5.47;;
4857;SDS011;58975;51.978;8.472;2024-03-02T23:00:09;8.23;;;5.32;;
4857;SDS011;58975;51.978;8.472;2024-03-02T23:05:18;10.20;;;5.28;;
4857;SDS011;58975;51.978;8.472;2024-03-02T23:10:15;9.07;;;5.47;;
4857;SDS011;58975;51.978;8.472;2024-03-02T23:15:12;9.43;;;5.10;;
4857;SDS011;58975;51.978;8.472;2024-03-02T23:20:08;8.25;;;5.30;;
4857;SDS011;58975;51.978;8.472;2024-03-02T23:25:05;12.23;;;5.13;;
4857;SDS011;58975;51.978;8.472;2024-03-02T23:30:03;8.85;;;5.97;;
4857;SDS011;58975;51.978;8.472;2024-03-02T23:34:59;8.43;;;5.53;;
4857;SDS011;58975;51.978;8.472;2024-03-02T23:39:56;10.23;;;6.07;;
4857;SDS011;58975;51.978;8.472;2024-03-02T23:45:08;8.35;;;5.47;;
4857;SDS011;58975;51.978;8.472;2024-03-02T23:50:05;10.57;;;5.47;;
4857;SDS011;58975;51.978;8.472;2024-03-02T23:55:02;8.85;;;5.40;;
